Lake Bronson, Minnesota
Current Conditions -  °F | °C
As of 5:33 PM on Tuesday 25 Nov 2014 (Local Time) from KHCO Reporting Station
Scattered Clouds Scattered Clouds  
Wind Chill:   Ceiling: Unl
Heat Index: 16°   Visibility: 10mi
Dew Point:   Wind: 13mph
Humidity: 73%   Direction: 20°NNE
Pressure: 30.01"   Gusts: NA
Location:  48.74°N, 96.66°W
Report Text: KHCO 252333Z AUTO 02011KT 10SM SCT039 M09/M13 A3001 RMK AO2
Loading
Personal Weather Stations






























Interactive Weather Map New forecast layout! Learn more

10-Day Weather Forecast

Advertisements
Track Severe Weather on mobile